ASH weather

Boire Field
Nashua, New Hampshire, United States

Public forecast

Using degrees Fahrenheit for public forecast. Weather courtesy of forecast.io.

Current aviation weather report (METAR) for Boire Field

Retrieved 2019/12/16 03:56 UTC (42 minutes ago):

KASH 160356Z AUTO 29015G21KT 10SM CLR M01/M11 A3001 RMK AO2 SLP167 T10061111

Closest aviation forecast (TAF) to Boire Field

Closest forecast is Manchester-Boston Regional Airport, 9.7 nm (18.0 km) NNE. Retrieved 2019-12-16 00:22 UTC (4 hours ago):

TAF KMHT 152320Z 1600/1624 27014G23KT P6SM FEW060 FM160800 27009KT P6SM SKC